Time;durP1;ratioP1;P1;durP2;ratioP2;P2;SDS_P1;SDS_P2;PMS_P1;PMS_P2;Temp;Humidity;BMP_temperature;BMP_pressure;BME280_temperature;BME280_humidity;BME280_pressure;Samples;Min_cycle;Max_cycle;Signal;HPM_P1;HPM_P2
2023/08/10 00:00:49;;;;;;;2.57;2.37;;;15.00;99.90;;;;;;5098306;28;20729;-73
2023/08/10 00:03:16;;;;;;;1.93;1.73;;;14.90;99.90;;;;;;5096493;28;20997;-73
2023/08/10 00:05:43;;;;;;;1.60;1.50;;;14.80;99.90;;;;;;5086570;28;20653;-73
2023/08/10 00:08:12;;;;;;;1.40;1.30;;;14.80;99.90;;;;;;5091810;28;20691;-73
2023/08/10 00:10:38;;;;;;;2.13;1.93;;;14.80;99.90;;;;;;5082001;28;21239;-73
2023/08/10 00:13:05;;;;;;;2.53;2.20;;;14.90;99.90;;;;;;5091210;28;20635;-73
2023/08/10 00:15:32;;;;;;;2.20;2.00;;;14.90;99.90;;;;;;5085976;28;20657;-73
2023/08/10 00:17:59;;;;;;;2.77;2.53;;;14.90;99.90;;;;;;5084913;28;21026;-73
2023/08/10 00:20:26;;;;;;;2.57;2.37;;;15.00;99.90;;;;;;5084090;28;21005;-73
2023/08/10 00:22:53;;;;;;;1.90;1.80;;;15.00;99.90;;;;;;5085642;28;20631;-73
2023/08/10 00:25:21;;;;;;;2.73;2.37;;;15.00;99.90;;;;;;5085095;28;21235;-73
2023/08/10 00:27:48;;;;;;;2.43;1.87;;;15.10;99.90;;;;;;5088345;28;21139;-73
2023/08/10 00:30:16;;;;;;;2.30;2.10;;;15.10;99.90;;;;;;5087679;28;20638;-73
2023/08/10 00:32:43;;;;;;;2.43;2.07;;;15.00;99.90;;;;;;5088026;28;20624;-73
2023/08/10 00:35:10;;;;;;;3.10;2.27;;;14.90;99.90;;;;;;5086603;28;20620;-73
2023/08/10 00:37:37;;;;;;;3.30;2.20;;;15.00;99.90;;;;;;5087132;28;20716;-73
2023/08/10 00:40:04;;;;;;;3.70;3.00;;;15.00;99.90;;;;;;5083987;28;20618;-73
2023/08/10 00:42:32;;;;;;;5.50;2.23;;;15.10;99.90;;;;;;5085688;28;20660;-73
2023/08/10 00:45:00;;;;;;;2.03;1.93;;;15.00;99.90;;;;;;5084097;28;20628;-73
2023/08/10 00:47:27;;;;;;;2.07;1.90;;;15.00;99.90;;;;;;5084650;28;20648;-73
2023/08/10 00:49:54;;;;;;;2.43;2.20;;;14.90;99.90;;;;;;5085431;28;20649;-73
2023/08/10 00:52:21;;;;;;;2.70;2.07;;;14.70;99.90;;;;;;5083955;28;20644;-73
2023/08/10 00:54:48;;;;;;;2.90;2.60;;;14.70;99.90;;;;;;5084454;28;20628;-73
2023/08/10 00:57:15;;;;;;;3.13;2.47;;;14.40;99.90;;;;;;5084795;28;21272;-73
2023/08/10 00:59:44;;;;;;;2.67;2.43;;;14.20;99.90;;;;;;5084075;28;20627;-73
2023/08/10 01:02:11;;;;;;;3.10;2.80;;;14.10;99.90;;;;;;5085113;28;20648;-72
2023/08/10 01:04:38;;;;;;;2.97;2.73;;;14.00;99.90;;;;;;5084168;28;21048;-73
2023/08/10 01:07:14;;;;;;;2.67;2.47;;;13.90;99.90;;;;;;5084974;28;21240;-73
2023/08/10 01:09:48;;;;;;;2.90;2.60;;;13.80;99.90;;;;;;5085714;28;21323;-73
2023/08/10 01:12:22;;;;;;;1.90;1.80;;;13.80;99.90;;;;;;5091199;28;20648;-72
2023/08/10 01:14:59;;;;;;;2.13;1.93;;;13.70;99.90;;;;;;5094179;28;20623;-73
2023/08/10 01:17:30;;;;;;;2.20;2.00;;;13.60;99.90;;;;;;5090964;28;21273;-73
2023/08/10 01:20:03;;;;;;;2.90;2.60;;;13.60;99.90;;;;;;5086665;28;20613;-73
2023/08/10 01:22:40;;;;;;;2.33;2.13;;;13.70;99.90;;;;;;5086492;28;20648;-73
2023/08/10 01:25:09;;;;;;;2.27;2.03;;;13.70;99.90;;;;;;5088788;28;20682;-73
2023/08/10 01:27:38;;;;;;;3.03;2.27;;;13.60;99.90;;;;;;5090051;28;20641;-73
2023/08/10 01:30:07;;;;;;;1.80;1.70;;;13.50;99.90;;;;;;5087195;28;20645;-73
2023/08/10 01:32:35;;;;;;;4.83;2.80;;;13.50;99.90;;;;;;5089298;28;20633;-73
2023/08/10 01:35:05;;;;;;;2.87;2.57;;;13.60;99.90;;;;;;5091328;28;20620;-73
2023/08/10 01:37:32;;;;;;;2.60;2.37;;;13.60;99.90;;;;;;5087749;28;20641;-73
2023/08/10 01:40:00;;;;;;;2.20;2.10;;;13.50;99.90;;;;;;5096835;28;20734;-73
2023/08/10 01:42:29;;;;;;;7.07;3.20;;;13.30;99.90;;;;;;5088232;28;20648;-73
2023/08/10 01:44:56;;;;;;;2.50;2.30;;;13.30;99.90;;;;;;5088061;28;20986;-73
2023/08/10 01:47:29;;;;;;;2.23;1.97;;;13.30;99.90;;;;;;5097537;28;20652;-72
2023/08/10 01:50:01;;;;;;;3.00;2.60;;;13.50;99.90;;;;;;5093415;28;21151;-73
2023/08/10 01:52:34;;;;;;;3.80;3.03;;;13.60;99.90;;;;;;5086859;28;21039;-73
2023/08/10 01:55:03;;;;;;;8.53;2.10;;;13.60;99.90;;;;;;5088151;28;20628;-73
2023/08/10 01:57:32;;;;;;;2.67;2.47;;;13.60;99.90;;;;;;5088325;28;21084;-73
2023/08/10 02:00:01;;;;;;;2.80;2.60;;;13.60;99.90;;;;;;5091927;28;20621;-73
2023/08/10 02:02:28;;;;;;;2.67;2.10;;;13.60;99.90;;;;;;5092037;28;20655;-73
2023/08/10 02:04:56;;;;;;;2.70;2.37;;;13.70;99.90;;;;;;5087836;28;20662;-73
2023/08/10 02:07:24;;;;;;;2.47;2.10;;;13.70;99.90;;;;;;5089149;28;21252;-73
2023/08/10 02:09:51;;;;;;;2.37;2.00;;;13.80;99.90;;;;;;5087492;28;20653;-73
2023/08/10 02:12:18;;;;;;;2.27;2.07;;;13.80;99.90;;;;;;5088037;28;20655;-73
2023/08/10 02:14:46;;;;;;;3.47;2.70;;;13.70;99.90;;;;;;5087159;28;20724;-73
2023/08/10 02:17:13;;;;;;;2.70;2.47;;;13.70;99.90;;;;;;5087330;28;20653;-73
2023/08/10 02:19:40;;;;;;;3.20;2.70;;;13.60;99.90;;;;;;5087423;28;20702;-73
2023/08/10 02:22:07;;;;;;;3.70;2.20;;;13.60;99.90;;;;;;5086122;28;21019;-73
2023/08/10 02:24:35;;;;;;;2.73;2.23;;;13.60;99.90;;;;;;5086851;28;20628;-73
2023/08/10 02:27:03;;;;;;;3.57;2.70;;;13.60;99.90;;;;;;5087057;28;20645;-73
2023/08/10 02:29:31;;;;;;;2.53;2.33;;;13.50;99.90;;;;;;5086026;28;20640;-73
2023/08/10 02:32:00;;;;;;;2.43;2.27;;;13.40;99.90;;;;;;5086939;28;20652;-73
2023/08/10 02:34:28;;;;;;;2.20;1.87;;;13.40;99.90;;;;;;5093654;28;21312;-73
2023/08/10 02:36:55;;;;;;;2.80;2.60;;;13.40;99.90;;;;;;5097055;28;21000;-73
2023/08/10 02:39:22;;;;;;;4.97;2.73;;;13.40;99.90;;;;;;5096250;28;20981;-73
2023/08/10 02:41:49;;;;;;;2.27;2.07;;;13.40;99.90;;;;;;5089761;28;20636;-73
2023/08/10 02:44:16;;;;;;;2.30;1.73;;;13.30;99.90;;;;;;5088840;28;20633;-73
2023/08/10 02:46:44;;;;;;;2.50;2.30;;;13.40;99.90;;;;;;5096928;28;21232;-73
2023/08/10 02:49:13;;;;;;;2.90;2.60;;;13.30;99.90;;;;;;5082824;28;21199;-73
2023/08/10 02:51:41;;;;;;;2.27;1.73;;;13.30;99.90;;;;;;5074349;28;20660;-73
2023/08/10 02:54:09;;;;;;;2.80;2.60;;;13.20;99.90;;;;;;5099648;28;20676;-73
2023/08/10 02:56:37;;;;;;;4.30;2.47;;;13.20;99.90;;;;;;5094706;28;20678;-73
2023/08/10 02:59:05;;;;;;;2.37;2.20;;;13.00;99.90;;;;;;5094453;28;20629;-73
2023/08/10 03:01:33;;;;;;;2.70;2.50;;;13.00;99.90;;;;;;5092371;28;20747;-73
2023/08/10 03:04:01;;;;;;;2.50;2.30;;;12.90;99.90;;;;;;5087845;28;20199;-73
2023/08/10 03:06:31;;;;;;;2.70;2.50;;;12.80;99.90;;;;;;5080132;28;20731;-73
2023/08/10 03:08:59;;;;;;;3.13;2.83;;;12.70;99.90;;;;;;5087874;28;20681;-72
2023/08/10 03:11:27;;;;;;;2.30;2.10;;;12.70;99.90;;;;;;5091968;28;21081;-73
2023/08/10 03:13:56;;;;;;;2.40;2.17;;;12.80;99.90;;;;;;5095165;28;21171;-73
2023/08/10 03:16:23;;;;;;;2.03;1.93;;;12.90;99.90;;;;;;5097352;28;20647;-73
2023/08/10 03:18:50;;;;;;;2.57;2.37;;;12.90;99.90;;;;;;5094327;28;20632;-73
2023/08/10 03:21:17;;;;;;;2.50;2.30;;;12.90;99.90;;;;;;5093271;28;21283;-73
2023/08/10 03:23:46;;;;;;;2.37;2.17;;;12.80;99.90;;;;;;5091233;28;21082;-72
2023/08/10 03:26:13;;;;;;;2.50;2.30;;;12.70;99.90;;;;;;5088370;28;20760;-72
2023/08/10 03:28:39;;;;;;;2.17;1.97;;;12.60;99.90;;;;;;5103405;28;20628;-73
2023/08/10 03:31:06;;;;;;;3.80;2.50;;;12.70;99.90;;;;;;5097415;28;20709;-73
2023/08/10 03:33:33;;;;;;;2.50;2.30;;;12.80;99.90;;;;;;5090681;28;20760;-73
2023/08/10 03:36:01;;;;;;;2.83;2.57;;;12.90;99.90;;;;;;5091311;28;20936;-73
2023/08/10 03:38:28;;;;;;;3.20;2.63;;;12.80;99.90;;;;;;5095849;28;20728;-73
2023/08/10 03:40:56;;;;;;;3.13;2.83;;;12.90;99.90;;;;;;5098991;28;20651;-73
2023/08/10 03:43:23;;;;;;;3.20;2.90;;;13.10;99.90;;;;;;5087058;28;20633;-73
2023/08/10 03:45:49;;;;;;;3.00;2.80;;;13.10;99.90;;;;;;5087640;28;20653;-73
2023/08/10 03:48:16;;;;;;;3.30;3.00;;;13.20;99.90;;;;;;5087085;28;20637;-73
2023/08/10 03:50:43;;;;;;;2.77;2.53;;;13.20;99.90;;;;;;5095346;28;20672;-73
2023/08/10 03:53:10;;;;;;;2.60;2.40;;;13.20;99.90;;;;;;5091272;28;20719;-73
2023/08/10 03:55:37;;;;;;;3.57;3.27;;;13.20;99.90;;;;;;5094252;28;20648;-73
2023/08/10 03:58:05;;;;;;;3.70;3.30;;;13.20;99.90;;;;;;5090109;28;20621;-73
2023/08/10 04:00:32;;;;;;;2.87;2.57;;;13.10;99.90;;;;;;5097908;28;20727;-73
2023/08/10 04:02:59;;;;;;;2.80;2.30;;;13.10;99.90;;;;;;5094328;28;20716;-73
2023/08/10 04:05:27;;;;;;;2.60;2.30;;;13.10;99.90;;;;;;5093848;28;20654;-73
2023/08/10 04:07:54;;;;;;;3.90;3.60;;;13.10;99.90;;;;;;5098185;28;20628;-73
2023/08/10 04:10:21;;;;;;;2.63;2.43;;;13.20;99.90;;;;;;5093476;28;20656;-70
2023/08/10 04:12:47;;;;;;;3.70;2.90;;;13.20;99.90;;;;;;5099020;28;21247;-70
2023/08/10 04:15:15;;;;;;;3.53;3.23;;;13.10;99.90;;;;;;5090075;28;20629;-71
2023/08/10 04:17:44;;;;;;;4.10;2.90;;;13.10;99.90;;;;;;5088395;28;20617;-71
2023/08/10 04:20:13;;;;;;;2.70;2.50;;;13.00;99.90;;;;;;5085638;28;20624;-70
2023/08/10 04:22:41;;;;;;;3.33;3.03;;;12.70;99.90;;;;;;5088887;28;20706;-71
2023/08/10 04:25:08;;;;;;;2.20;2.10;;;12.70;99.90;;;;;;5086632;28;20633;-70
2023/08/10 04:27:35;;;;;;;2.33;2.13;;;12.80;99.90;;;;;;5092307;28;20635;-71
2023/08/10 04:30:04;;;;;;;4.17;2.70;;;12.90;99.90;;;;;;5089581;28;20668;-70
2023/08/10 04:32:32;;;;;;;2.43;2.23;;;12.90;99.90;;;;;;5089164;28;20625;-71
2023/08/10 04:34:59;;;;;;;3.30;2.90;;;12.90;99.90;;;;;;5086736;28;20726;-70
2023/08/10 04:37:26;;;;;;;3.17;2.87;;;13.00;99.90;;;;;;5084289;28;20684;-71
2023/08/10 04:39:53;;;;;;;2.57;2.37;;;13.00;99.90;;;;;;5086029;28;20647;-72
2023/08/10 04:42:20;;;;;;;4.07;2.80;;;13.00;99.90;;;;;;5086979;28;20655;-73
2023/08/10 04:44:47;;;;;;;2.50;2.30;;;12.90;99.90;;;;;;5094554;28;21000;-72
2023/08/10 04:47:14;;;;;;;2.00;1.90;;;12.90;99.90;;;;;;5090874;28;21048;-72
2023/08/10 04:49:42;;;;;;;3.03;2.30;;;12.90;99.90;;;;;;5096105;28;20734;-72
2023/08/10 04:52:09;;;;;;;2.63;2.43;;;12.90;99.90;;;;;;5090523;28;20645;-72
2023/08/10 04:54:35;;;;;;;3.17;2.87;;;12.90;99.90;;;;;;5099102;28;20627;-72
2023/08/10 04:57:02;;;;;;;3.43;3.10;;;12.90;99.90;;;;;;5092851;28;20644;-72
2023/08/10 04:59:29;;;;;;;2.13;1.93;;;12.90;99.90;;;;;;5090022;28;20735;-72
2023/08/10 05:01:56;;;;;;;2.90;2.37;;;13.10;99.90;;;;;;5090902;28;20824;-71
2023/08/10 05:04:22;;;;;;;2.83;2.47;;;13.20;99.90;;;;;;5090014;28;20625;-71
2023/08/10 05:06:51;;;;;;;2.60;2.40;;;13.20;99.90;;;;;;5094129;28;20658;-71
2023/08/10 05:09:18;;;;;;;2.60;2.40;;;13.10;99.90;;;;;;5092894;28;21027;-71
2023/08/10 05:11:45;;;;;;;3.43;2.93;;;13.20;99.90;;;;;;5090586;28;20747;-73
2023/08/10 05:14:11;;;;;;;3.10;2.80;;;13.40;99.90;;;;;;5089729;28;20624;-72
2023/08/10 05:16:38;;;;;;;3.43;3.17;;;13.50;99.90;;;;;;5093836;28;20660;-72
2023/08/10 05:19:05;;;;;;;3.77;2.93;;;13.60;99.90;;;;;;5092015;28;21116;-72
2023/08/10 05:21:32;;;;;;;2.63;2.40;;;13.70;99.90;;;;;;5089019;28;20658;-72
2023/08/10 05:24:00;;;;;;;3.83;2.47;;;13.80;99.90;;;;;;5087960;28;20625;-71
2023/08/10 05:26:28;;;;;;;2.63;2.37;;;13.80;99.90;;;;;;5082350;28;20695;-71
2023/08/10 05:28:54;;;;;;;3.03;2.80;;;13.90;99.90;;;;;;5084306;28;20629;-71
2023/08/10 05:31:22;;;;;;;3.50;2.73;;;14.00;99.90;;;;;;5094914;28;21049;-71
2023/08/10 05:33:48;;;;;;;5.27;3.87;;;14.10;99.90;;;;;;5088126;28;20639;-71
2023/08/10 05:36:16;;;;;;;4.70;3.83;;;14.20;99.90;;;;;;5097136;28;20743;-71
2023/08/10 05:38:42;;;;;;;4.03;3.63;;;14.20;99.90;;;;;;5098551;28;20712;-71
2023/08/10 05:41:11;;;;;;;4.30;2.80;;;14.30;99.90;;;;;;5089804;28;20656;-72
2023/08/10 05:43:37;;;;;;;3.80;3.50;;;14.30;99.90;;;;;;5093075;28;20742;-72
2023/08/10 05:46:04;;;;;;;3.87;3.50;;;14.50;99.90;;;;;;5091984;28;20680;-72
2023/08/10 05:48:31;;;;;;;3.73;3.43;;;14.60;99.90;;;;;;5081418;28;20628;-71
2023/08/10 05:50:58;;;;;;;7.17;3.57;;;14.70;99.90;;;;;;5086788;28;20672;-71
2023/08/10 05:53:24;;;;;;;3.83;3.47;;;14.70;99.90;;;;;;5091763;28;20703;-71
2023/08/10 05:55:51;;;;;;;5.80;3.90;;;14.70;99.90;;;;;;5086484;28;21008;-75
2023/08/10 05:58:19;;;;;;;3.87;3.23;;;14.80;99.90;;;;;;5097642;28;20983;-75
2023/08/10 06:00:46;;;;;;;5.83;4.27;;;15.00;99.90;;;;;;5088645;28;20735;-75
2023/08/10 06:03:14;;;;;;;4.30;3.90;;;15.20;99.90;;;;;;5090030;28;20675;-74
2023/08/10 06:05:42;;;;;;;3.73;3.10;;;15.20;99.90;;;;;;5095086;28;20750;-75
2023/08/10 06:08:09;;;;;;;4.37;3.97;;;15.20;99.90;;;;;;5100681;28;20636;-75
2023/08/10 06:10:35;;;;;;;3.87;3.30;;;15.20;99.90;;;;;;5097576;28;21189;-74
2023/08/10 06:13:02;;;;;;;4.80;3.50;;;15.30;99.90;;;;;;5098198;28;20728;-74
2023/08/10 06:15:30;;;;;;;4.90;3.70;;;15.50;99.90;;;;;;5093176;28;20640;-75
2023/08/10 06:17:57;;;;;;;3.60;3.30;;;15.50;99.90;;;;;;5090132;28;20641;-74
2023/08/10 06:20:26;;;;;;;5.13;4.17;;;15.50;99.90;;;;;;5087397;28;20641;-75
2023/08/10 06:22:54;;;;;;;4.30;3.90;;;15.60;99.90;;;;;;5098009;28;20720;-75
2023/08/10 06:25:22;;;;;;;4.50;4.00;;;15.70;99.90;;;;;;5097264;28;20628;-75
2023/08/10 06:27:49;;;;;;;4.43;4.00;;;15.70;99.90;;;;;;5081418;28;20653;-74
2023/08/10 06:30:16;;;;;;;4.97;3.80;;;15.70;99.90;;;;;;5096442;28;20662;-75
2023/08/10 06:32:44;;;;;;;4.40;4.00;;;15.70;99.90;;;;;;5099864;28;20624;-75
2023/08/10 06:35:11;;;;;;;3.80;3.43;;;15.70;99.90;;;;;;5090947;28;20623;-74
2023/08/10 06:37:38;;;;;;;3.30;3.00;;;15.70;99.90;;;;;;5098085;28;20720;-75
2023/08/10 06:40:08;;;;;;;3.40;3.07;;;15.70;99.90;;;;;;5100087;28;20620;-75
2023/08/10 06:42:35;;;;;;;3.93;3.63;;;15.80;99.90;;;;;;5095516;28;20721;-74
2023/08/10 06:45:03;;;;;;;5.00;3.83;;;15.80;99.90;;;;;;5104934;28;20985;-75
2023/08/10 06:47:30;;;;;;;4.00;3.60;;;15.80;99.90;;;;;;5083019;28;20621;-74
2023/08/10 06:49:58;;;;;;;5.30;4.17;;;15.90;99.90;;;;;;5088185;28;20732;-74
2023/08/10 06:52:25;;;;;;;4.67;3.87;;;16.00;99.90;;;;;;5090881;28;20652;-73
2023/08/10 06:54:53;;;;;;;4.70;4.32;;;16.00;99.90;;;;;;5098934;28;20944;-73
2023/08/10 06:57:20;;;;;;;4.40;4.00;;;16.10;99.90;;;;;;5089640;28;20575;-73
2023/08/10 06:59:47;;;;;;;3.70;3.40;;;16.10;99.90;;;;;;5098093;28;21073;-73
2023/08/10 07:02:14;;;;;;;3.60;3.30;;;16.10;99.90;;;;;;5093648;28;20636;-73
2023/08/10 07:04:40;;;;;;;3.80;3.50;;;16.20;99.90;;;;;;5092412;28;20627;-73
2023/08/10 07:07:09;;;;;;;6.80;4.80;;;16.20;99.90;;;;;;5091841;28;20660;-73
2023/08/10 07:09:37;;;;;;;4.23;3.77;;;16.20;99.90;;;;;;5088377;28;20635;-73
2023/08/10 07:12:04;;;;;;;3.90;3.50;;;16.40;99.90;;;;;;5096168;28;20671;-73
2023/08/10 07:14:31;;;;;;;5.40;3.87;;;16.40;99.90;;;;;;5089952;28;20711;-73
2023/08/10 07:16:58;;;;;;;4.20;3.80;;;16.40;99.90;;;;;;5087777;28;20640;-73
2023/08/10 07:19:25;;;;;;;4.57;3.70;;;16.40;99.90;;;;;;5086922;28;20623;-73
2023/08/10 07:21:55;;;;;;;3.50;3.30;;;16.50;99.90;;;;;;5099146;28;20665;-73
2023/08/10 07:24:23;;;;;;;7.00;3.70;;;16.60;99.90;;;;;;5094720;28;20632;-73
2023/08/10 07:26:51;;;;;;;3.60;3.30;;;16.60;99.90;;;;;;5099462;28;21010;-73
2023/08/10 07:29:19;;;;;;;3.73;3.37;;;16.60;99.90;;;;;;5094063;28;21028;-73
2023/08/10 07:31:46;;;;;;;4.93;3.10;;;16.80;99.90;;;;;;5090232;28;20767;-73
2023/08/10 07:34:13;;;;;;;3.73;3.40;;;16.80;99.90;;;;;;5091926;28;20638;-73
2023/08/10 07:36:40;;;;;;;3.90;3.50;;;16.90;99.90;;;;;;5087146;28;21296;-73
2023/08/10 07:39:07;;;;;;;3.83;3.33;;;17.00;99.90;;;;;;5091675;28;21293;-73
2023/08/10 07:41:35;;;;;;;3.63;3.33;;;17.10;99.90;;;;;;5095768;28;20672;-72
2023/08/10 07:44:02;;;;;;;4.00;3.53;;;17.00;99.90;;;;;;5091020;28;20628;-73
2023/08/10 07:46:30;;;;;;;3.40;3.10;;;17.10;99.90;;;;;;5086624;28;20733;-73
2023/08/10 07:48:57;;;;;;;3.20;2.90;;;17.10;99.90;;;;;;5091780;28;20728;-72
2023/08/10 07:51:23;;;;;;;4.73;3.53;;;17.20;99.90;;;;;;5097438;28;20670;-73
2023/08/10 07:53:50;;;;;;;3.33;3.00;;;17.20;99.90;;;;;;5087357;28;20749;-72
2023/08/10 07:56:17;;;;;;;4.90;4.10;;;17.30;99.90;;;;;;5099715;28;20659;-73
2023/08/10 07:58:45;;;;;;;3.13;2.93;;;17.40;99.90;;;;;;5095053;28;20617;-72
2023/08/10 08:01:14;;;;;;;3.53;3.20;;;17.40;99.90;;;;;;5094723;28;20651;-73
2023/08/10 08:03:40;;;;;;;4.70;4.30;;;17.40;99.90;;;;;;5089364;28;20629;-73
2023/08/10 08:06:08;;;;;;;3.60;3.13;;;17.50;99.90;;;;;;5096650;28;20751;-73
2023/08/10 08:08:35;;;;;;;3.27;2.90;;;17.80;99.90;;;;;;5089703;28;20641;-73
2023/08/10 08:11:02;;;;;;;4.43;3.07;;;17.70;99.90;;;;;;5093654;28;20668;-73
2023/08/10 08:13:28;;;;;;;3.43;3.13;;;17.80;99.90;;;;;;5090307;28;20620;-73
2023/08/10 08:15:57;;;;;;;3.73;3.40;;;17.80;99.90;;;;;;5087083;28;20863;-73
2023/08/10 08:18:44;;;;;;;3.83;3.53;;;17.80;99.90;;;;;;5088049;28;20682;-73
2023/08/10 08:21:11;;;;;;;4.03;3.60;;;18.00;99.90;;;;;;5093959;28;20648;-73
2023/08/10 08:23:38;;;;;;;2.53;2.40;;;18.10;99.90;;;;;;5092691;28;20693;-73
2023/08/10 08:26:05;;;;;;;4.87;3.30;;;18.20;99.90;;;;;;5092430;28;20648;-72
2023/08/10 08:28:32;;;;;;;3.70;3.40;;;18.30;99.90;;;;;;5092722;28;20612;-72
2023/08/10 08:31:00;;;;;;;4.27;3.27;;;18.40;99.90;;;;;;5101936;28;20659;-72
2023/08/10 08:33:27;;;;;;;5.17;3.30;;;18.50;99.90;;;;;;5094524;28;20621;-73
2023/08/10 08:35:54;;;;;;;3.50;3.00;;;18.50;99.90;;;;;;5082976;28;20648;-72
2023/08/10 08:38:21;;;;;;;3.70;3.50;;;18.60;99.90;;;;;;5091164;28;20719;-73
2023/08/10 08:40:49;;;;;;;5.53;4.80;;;18.50;99.90;;;;;;5101086;28;20641;-74
2023/08/10 08:43:17;;;;;;;4.27;3.23;;;18.50;99.90;;;;;;5102496;28;20616;-75
2023/08/10 08:45:46;;;;;;;3.60;3.30;;;18.70;99.90;;;;;;5100158;28;20743;-74
2023/08/10 08:48:17;;;;;;;4.20;3.80;;;18.80;99.90;;;;;;5089620;28;21179;-74
2023/08/10 08:50:45;;;;;;;3.10;2.90;;;18.90;99.90;;;;;;5099699;28;20739;-73
2023/08/10 08:53:13;;;;;;;3.40;2.77;;;19.10;99.90;;;;;;5088696;28;20627;-73
2023/08/10 08:55:41;;;;;;;4.17;3.20;;;19.20;99.90;;;;;;5090222;28;20704;-73
2023/08/10 08:58:08;;;;;;;3.20;2.90;;;19.30;99.90;;;;;;5095990;28;20633;-73
2023/08/10 09:00:35;;;;;;;3.77;3.43;;;19.40;99.90;;;;;;5089641;28;20748;-72
2023/08/10 09:03:02;;;;;;;3.73;3.43;;;19.70;99.90;;;;;;5097134;28;20694;-72
2023/08/10 09:05:31;;;;;;;2.93;2.73;;;19.60;99.90;;;;;;5102715;28;20646;-72
2023/08/10 09:07:58;;;;;;;4.07;3.63;;;19.60;99.90;;;;;;5096545;28;21204;-73
2023/08/10 09:10:25;;;;;;;4.33;3.93;;;19.80;99.90;;;;;;5100890;28;21065;-72
2023/08/10 09:12:52;;;;;;;3.83;3.50;;;19.90;99.90;;;;;;5098872;28;20687;-72
2023/08/10 09:15:20;;;;;;;5.50;3.33;;;20.00;99.90;;;;;;5098575;28;20920;-72
2023/08/10 09:17:47;;;;;;;3.70;3.40;;;20.00;99.90;;;;;;5092623;28;20629;-72
2023/08/10 09:20:19;;;;;;;4.10;3.70;;;20.10;99.90;;;;;;5096011;28;20718;-72
2023/08/10 09:22:48;;;;;;;5.70;3.83;;;20.00;99.90;;;;;;5089590;28;20623;-72
2023/08/10 09:25:15;;;;;;;5.17;4.07;;;20.10;99.90;;;;;;5098482;28;20615;-72
2023/08/10 09:27:42;;;;;;;6.13;3.03;;;20.30;99.90;;;;;;5092955;28;21112;-73
2023/08/10 09:30:10;;;;;;;3.67;2.80;;;20.40;99.90;;;;;;5096728;28;21269;-72
2023/08/10 09:32:39;;;;;;;3.17;2.90;;;20.50;99.90;;;;;;5098820;28;20659;-72
2023/08/10 09:35:06;;;;;;;3.63;3.37;;;20.70;99.90;;;;;;5094343;28;20627;-73
2023/08/10 09:37:33;;;;;;;3.93;3.00;;;20.70;99.90;;;;;;5091416;28;20720;-73
2023/08/10 09:40:05;;;;;;;3.50;3.20;;;21.00;99.90;;;;;;5097528;28;21114;-73
2023/08/10 09:42:33;;;;;;;3.20;2.90;;;21.20;99.90;;;;;;5094512;28;21050;-72
2023/08/10 09:45:00;;;;;;;5.30;2.60;;;21.30;99.50;;;;;;5105008;28;20658;-72
2023/08/10 09:47:27;;;;;;;4.10;2.87;;;21.50;99.90;;;;;;5089440;28;21059;-73
2023/08/10 09:49:56;;;;;;;3.20;2.90;;;21.50;98.20;;;;;;5089517;28;20635;-72
2023/08/10 09:52:24;;;;;;;2.70;2.50;;;21.30;99.10;;;;;;5094469;28;20774;-72
2023/08/10 09:54:51;;;;;;;3.17;2.97;;;21.20;99.80;;;;;;5094139;28;20732;-73
2023/08/10 09:57:20;;;;;;;4.23;3.27;;;21.20;98.60;;;;;;5092415;28;20658;-73
2023/08/10 09:59:47;;;;;;;3.27;3.07;;;21.30;98.40;;;;;;5088603;28;20626;-72
2023/08/10 10:02:15;;;;;;;4.20;3.20;;;21.40;97.30;;;;;;5096059;28;20649;-73
2023/08/10 10:04:43;;;;;;;3.33;3.03;;;21.50;97.70;;;;;;5095715;28;20634;-72
2023/08/10 10:07:12;;;;;;;3.50;3.20;;;21.60;98.20;;;;;;5098577;28;20665;-72
2023/08/10 10:09:40;;;;;;;3.47;3.00;;;21.70;98.20;;;;;;5097135;28;20725;-72
2023/08/10 10:12:10;;;;;;;2.80;2.60;;;21.80;96.40;;;;;;5098364;28;20780;-72
2023/08/10 10:14:40;;;;;;;2.60;2.40;;;21.90;95.10;;;;;;5100202;28;20628;-72
2023/08/10 10:17:07;;;;;;;3.30;3.00;;;21.80;96.30;;;;;;5087471;28;21236;-72
2023/08/10 10:19:34;;;;;;;3.50;3.17;;;22.00;96.50;;;;;;5096073;28;20745;-72
2023/08/10 10:22:01;;;;;;;2.60;2.23;;;22.20;95.60;;;;;;5095640;28;20310;-72
2023/08/10 10:24:29;;;;;;;3.30;3.00;;;22.30;95.20;;;;;;5099543;28;20634;-73
2023/08/10 10:27:00;;;;;;;2.70;2.50;;;22.40;95.60;;;;;;5094918;28;20646;-73
2023/08/10 10:29:38;;;;;;;2.27;2.07;;;22.70;95.40;;;;;;5099466;28;21676;-72
2023/08/10 10:32:07;;;;;;;3.00;2.70;;;22.40;94.60;;;;;;5090178;28;20963;-72
2023/08/10 10:34:33;;;;;;;2.67;2.47;;;22.00;94.60;;;;;;5098124;28;20638;-72
2023/08/10 10:37:12;;;;;;;2.57;2.37;;;21.70;95.50;;;;;;5094388;28;20678;-72
2023/08/10 10:39:40;;;;;;;2.33;2.20;;;21.40;94.80;;;;;;5095265;28;20618;-72
2023/08/10 10:42:09;;;;;;;2.70;2.50;;;21.50;95.00;;;;;;5096988;28;20682;-72
2023/08/10 10:45:01;;;;;;;2.20;2.00;;;21.50;94.60;;;;;;5092225;28;20970;-71
2023/08/10 10:47:39;;;;;;;2.90;2.70;;;21.40;94.50;;;;;;5089056;28;20716;-71
2023/08/10 10:50:16;;;;;;;2.30;2.00;;;21.40;95.30;;;;;;5088039;28;20618;-71
2023/08/10 10:52:54;;;;;;;2.23;2.03;;;21.60;96.00;;;;;;5092779;28;20749;-72
2023/08/10 10:55:21;;;;;;;2.40;2.20;;;21.90;95.30;;;;;;5100516;28;21550;-72
2023/08/10 10:57:50;;;;;;;2.33;2.13;;;22.40;94.10;;;;;;5095690;28;21069;-71
2023/08/10 11:00:20;;;;;;;2.10;1.90;;;22.90;93.60;;;;;;5079470;28;20620;-71
2023/08/10 11:02:48;;;;;;;2.70;2.47;;;23.30;93.10;;;;;;5093773;28;20677;-71
2023/08/10 11:05:16;;;;;;;2.83;2.60;;;23.60;93.40;;;;;;5088446;28;20749;-72
2023/08/10 11:07:43;;;;;;;2.67;2.40;;;23.80;92.60;;;;;;5093197;28;20647;-73
2023/08/10 11:10:11;;;;;;;2.83;2.10;;;23.90;93.00;;;;;;5097792;28;20639;-72
2023/08/10 11:12:39;;;;;;;3.20;2.63;;;24.00;92.10;;;;;;5088269;28;20756;-72
2023/08/10 11:15:07;;;;;;;2.37;2.27;;;24.20;91.10;;;;;;5096347;28;20624;-72
2023/08/10 11:17:35;;;;;;;2.73;2.50;;;24.40;90.00;;;;;;5086803;28;20634;-72
2023/08/10 11:20:09;;;;;;;2.93;2.60;;;24.30;90.30;;;;;;5088406;28;21230;-72
2023/08/10 11:22:38;;;;;;;2.93;2.60;;;24.00;90.60;;;;;;5087938;28;20616;-72
2023/08/10 11:25:08;;;;;;;2.83;2.33;;;23.90;88.80;;;;;;5089147;28;20632;-72
2023/08/10 11:27:37;;;;;;;2.00;1.90;;;24.00;90.80;;;;;;5094002;28;21028;-72
2023/08/10 11:30:06;;;;;;;3.27;3.00;;;24.00;87.40;;;;;;5092684;28;20631;-72
2023/08/10 11:32:33;;;;;;;2.37;2.17;;;24.20;87.30;;;;;;5090329;28;20659;-72
2023/08/10 11:35:01;;;;;;;2.60;2.30;;;24.20;87.50;;;;;;5091389;28;20633;-72
2023/08/10 11:37:31;;;;;;;3.13;2.83;;;24.70;89.60;;;;;;5087215;28;20677;-72
2023/08/10 11:40:06;;;;;;;2.63;2.43;;;25.20;87.70;;;;;;5079092;28;20753;-72
2023/08/10 11:42:36;;;;;;;3.77;2.00;;;25.80;85.70;;;;;;5095944;28;20627;-72
2023/08/10 11:45:08;;;;;;;2.73;2.53;;;26.20;82.40;;;;;;5090517;28;20621;-72
2023/08/10 11:47:40;;;;;;;2.90;2.70;;;26.10;83.00;;;;;;5085382;28;21114;-72
2023/08/10 11:50:10;;;;;;;2.37;2.10;;;25.80;84.60;;;;;;5083698;28;20629;-72
2023/08/10 11:52:38;;;;;;;1.90;1.80;;;25.60;84.40;;;;;;5087541;28;20702;-72
2023/08/10 11:55:12;;;;;;;3.00;2.80;;;25.70;86.20;;;;;;5088820;28;21018;-72
2023/08/10 11:57:40;;;;;;;2.87;2.60;;;26.20;84.40;;;;;;5094918;28;20630;-73
2023/08/10 12:00:30;;;;;;;2.43;2.23;;;26.90;79.80;;;;;;5096777;28;20686;-73
2023/08/10 12:03:01;;;;;;;2.43;2.23;;;27.70;78.00;;;;;;5084835;28;20634;-73
2023/08/10 12:05:35;;;;;;;2.67;2.07;;;28.80;72.70;;;;;;5091310;28;20755;-73
2023/08/10 12:08:02;;;;;;;3.03;2.67;;;30.20;67.10;;;;;;5091682;28;21037;-71
2023/08/10 12:10:35;;;;;;;2.30;2.10;;;30.70;64.60;;;;;;5082414;28;20684;-72
2023/08/10 12:13:02;;;;;;;2.60;2.40;;;31.10;62.90;;;;;;5082429;28;20652;-71
2023/08/10 12:15:30;;;;;;;2.40;2.20;;;31.50;59.50;;;;;;5095261;28;20654;-71
2023/08/10 12:17:57;;;;;;;1.93;1.83;;;32.20;57.20;;;;;;5089575;28;20635;-71
2023/08/10 12:20:24;;;;;;;2.03;1.93;;;32.70;57.60;;;;;;5086562;28;20645;-71
2023/08/10 12:22:53;;;;;;;4.70;2.00;;;33.20;57.20;;;;;;5094336;28;21012;-71
2023/08/10 12:25:20;;;;;;;3.73;2.23;;;33.40;56.20;;;;;;5087305;28;20224;-71
2023/08/10 12:27:47;;;;;;;2.40;2.30;;;33.60;54.80;;;;;;5091214;28;20197;-72
2023/08/10 12:30:14;;;;;;;2.20;2.10;;;33.50;51.80;;;;;;5092638;28;20205;-71
2023/08/10 12:32:41;;;;;;;2.70;2.47;;;33.30;54.40;;;;;;5096509;28;20213;-72
2023/08/10 12:35:09;;;;;;;1.55;1.45;;;34.20;50.40;;;;;;5095241;28;20221;-72
2023/08/10 12:37:36;;;;;;;2.87;2.70;;;34.40;51.60;;;;;;5091538;28;20201;-72
2023/08/10 12:40:06;;;;;;;2.50;2.00;;;33.30;53.10;;;;;;5089174;28;20209;-72
2023/08/10 12:42:33;;;;;;;1.83;1.73;;;32.80;52.10;;;;;;5102364;28;20193;-72
2023/08/10 12:45:00;;;;;;;2.30;2.17;;;33.50;51.60;;;;;;5098574;28;20602;-72
2023/08/10 12:47:27;;;;;;;2.00;1.90;;;34.10;51.40;;;;;;5082136;28;20222;-72
2023/08/10 12:49:54;;;;;;;2.28;2.17;;;34.70;50.40;;;;;;5094977;28;20202;-72
2023/08/10 12:52:21;;;;;;;2.60;2.40;;;34.90;49.90;;;;;;5087415;28;20579;-72